Time;durP1;ratioP1;P1;durP2;ratioP2;P2;SDS_P1;SDS_P2;PMS_P1;PMS_P2;Temp;Humidity;BMP_temperature;BMP_pressure;BME280_temperature;BME280_humidity;BME280_pressure;Samples;Min_cycle;Max_cycle;Signal;HPM_P1;HPM_P2
2022/02/19 00:01:13;;;;;;;7.80;1.83;;;9.80;96.90;;;;;;1495570;26;20479;-90
2022/02/19 00:18:03;;;;;;;7.97;2.13;;;9.90;96.70;;;;;;4934139;29;20237;-90
2022/02/19 00:28:47;;;;;;;6.93;1.90;;;9.60;97.10;;;;;;4891678;29;20423;-90
2022/02/19 01:17:16;;;;;;;6.50;1.50;;;9.60;94.10;;;;;;4886415;29;20251;-90
2022/02/19 01:28:00;;;;;;;;;;;;;;;;;;;;;
2022/02/19 01:48:02;;;;;;;4.63;1.20;;;9.70;93.40;;;;;;5119104;22;20498;-90
2022/02/19 01:58:22;;;;;;;8.80;1.77;;;9.50;92.40;;;;;;4990031;28;20491;-90
2022/02/19 03:07:16;;;;;;;8.95;2.00;;;9.10;91.50;;;;;;5100637;22;20496;-86
2022/02/19 03:09:43;;;;;;;7.67;2.50;;;9.00;91.70;;;;;;5061824;28;20239;-85
2022/02/19 03:12:11;;;;;;;7.07;1.43;;;9.20;91.70;;;;;;5061167;28;20981;-85
2022/02/19 03:14:38;;;;;;;5.00;1.73;;;9.10;91.60;;;;;;5063074;28;20459;-84
2022/02/19 03:17:05;;;;;;;10.10;1.90;;;9.10;91.80;;;;;;5062322;28;20472;-86
2022/02/19 03:19:32;;;;;;;5.80;1.93;;;9.00;91.70;;;;;;5060386;28;20209;-86
2022/02/19 03:21:59;;;;;;;6.38;1.70;;;9.10;91.70;;;;;;5062404;28;20934;-85
2022/02/19 03:24:27;;;;;;;10.48;2.05;;;9.00;91.40;;;;;;5067341;28;20212;-84
2022/02/19 03:26:54;;;;;;;7.30;1.97;;;8.90;91.60;;;;;;5067141;28;20630;-84
2022/02/19 03:29:21;;;;;;;7.53;2.20;;;8.90;91.90;;;;;;5063568;28;20452;-84
2022/02/19 03:31:48;;;;;;;6.63;1.05;;;8.90;91.70;;;;;;5061507;28;20480;-85
2022/02/19 03:34:15;;;;;;;6.25;1.90;;;8.90;91.40;;;;;;5061048;28;20202;-86
2022/02/19 03:36:42;;;;;;;4.82;1.80;;;8.80;91.80;;;;;;5062156;28;20321;-84
2022/02/19 03:39:09;;;;;;;6.30;1.57;;;8.80;92.00;;;;;;5061305;28;20240;-84
2022/02/19 03:41:37;;;;;;;5.83;1.17;;;8.80;92.00;;;;;;5066211;28;20452;-85
2022/02/19 03:44:06;;;;;;;3.93;1.20;;;8.80;92.00;;;;;;5061782;28;20447;-86
2022/02/19 03:46:36;;;;;;;6.70;1.60;;;8.80;92.00;;;;;;5064360;28;20492;-85
2022/02/19 03:49:03;;;;;;;5.60;1.52;;;8.80;92.00;;;;;;5063640;28;20824;-85
2022/02/19 03:51:30;;;;;;;5.20;1.75;;;8.60;92.10;;;;;;5060353;28;20273;-85
2022/02/19 03:53:56;;;;;;;11.13;1.85;;;8.70;92.30;;;;;;5060700;28;20202;-85
2022/02/19 03:56:23;;;;;;;12.03;1.73;;;8.50;92.40;;;;;;5061350;28;20650;-85
2022/02/19 03:58:51;;;;;;;6.45;1.92;;;8.60;92.20;;;;;;5064773;28;20500;-86
2022/02/19 04:01:18;;;;;;;9.93;2.38;;;8.60;92.60;;;;;;5076188;28;20218;-85
2022/02/19 04:03:45;;;;;;;8.23;1.40;;;8.60;92.30;;;;;;5078311;28;20263;-85
2022/02/19 04:06:13;;;;;;;6.28;1.70;;;8.60;92.40;;;;;;5066811;28;20487;-85
2022/02/19 04:08:40;;;;;;;7.78;1.65;;;8.60;92.40;;;;;;5061891;28;20281;-84
2022/02/19 04:11:07;;;;;;;7.40;2.80;;;8.50;92.50;;;;;;5063113;28;20292;-84
2022/02/19 04:13:34;;;;;;;8.40;2.27;;;8.50;92.60;;;;;;5059485;28;20225;-84
2022/02/19 04:16:03;;;;;;;6.85;1.55;;;8.60;92.70;;;;;;5057733;28;20443;-84
2022/02/19 04:18:30;;;;;;;8.50;1.73;;;8.60;92.30;;;;;;5059199;28;20248;-86
2022/02/19 04:20:56;;;;;;;9.68;1.98;;;8.50;92.30;;;;;;5062029;28;20208;-83
2022/02/19 04:23:23;;;;;;;4.95;1.42;;;8.40;92.30;;;;;;5060345;28;20204;-84
2022/02/19 04:25:50;;;;;;;13.25;1.27;;;8.40;92.20;;;;;;5059360;28;20296;-84
2022/02/19 04:28:21;;;;;;;6.50;1.50;;;8.40;92.10;;;;;;5060061;28;20271;-84
2022/02/19 04:30:48;;;;;;;7.88;1.40;;;8.20;92.30;;;;;;5059311;28;20192;-84
2022/02/19 04:33:16;;;;;;;8.57;1.58;;;8.20;92.20;;;;;;5059445;28;20232;-83
2022/02/19 04:35:45;;;;;;;5.80;1.60;;;8.20;91.80;;;;;;5065987;28;20268;-84
2022/02/19 04:38:12;;;;;;;7.93;1.65;;;8.20;91.60;;;;;;5077760;28;20204;-86
2022/02/19 04:40:39;;;;;;;6.78;1.40;;;8.20;91.80;;;;;;5075089;28;20251;-85
2022/02/19 04:43:05;;;;;;;6.60;1.65;;;8.20;91.90;;;;;;5064357;28;20291;-84
2022/02/19 04:45:33;;;;;;;7.78;1.73;;;8.20;91.60;;;;;;5062870;28;20198;-84
2022/02/19 04:48:00;;;;;;;5.05;1.40;;;8.20;91.60;;;;;;5069874;28;20239;-84
2022/02/19 04:50:28;;;;;;;6.50;1.63;;;8.20;91.70;;;;;;5076006;28;20232;-85
2022/02/19 04:52:55;;;;;;;6.50;1.85;;;8.10;91.50;;;;;;5070837;28;20225;-84
2022/02/19 04:55:22;;;;;;;11.47;1.67;;;8.00;91.70;;;;;;5062249;28;20219;-85
2022/02/19 04:57:49;;;;;;;5.40;1.10;;;8.00;91.80;;;;;;5060288;28;20478;-84
2022/02/19 05:00:18;;;;;;;8.00;2.40;;;8.00;91.90;;;;;;5059566;28;20209;-84
2022/02/19 05:02:45;;;;;;;6.40;1.30;;;8.10;91.70;;;;;;5064839;28;20228;-84
2022/02/19 05:05:12;;;;;;;8.50;1.65;;;8.20;91.60;;;;;;5059257;28;20211;-84
2022/02/19 05:07:41;;;;;;;13.32;1.55;;;8.20;91.70;;;;;;5060709;28;20241;-84
2022/02/19 05:10:08;;;;;;;4.68;1.20;;;8.00;91.70;;;;;;5062287;28;20205;-84
2022/02/19 05:12:40;;;;;;;5.07;1.38;;;8.10;91.50;;;;;;5064091;28;20271;-85
2022/02/19 05:15:10;;;;;;;11.05;2.30;;;8.00;91.50;;;;;;5064583;28;20710;-85
2022/02/19 05:17:43;;;;;;;5.32;1.42;;;7.90;91.70;;;;;;5061965;28;20279;-86
2022/02/19 05:20:11;;;;;;;7.28;1.40;;;8.00;91.90;;;;;;5061244;28;20229;-85
2022/02/19 05:22:37;;;;;;;7.57;1.90;;;7.90;91.90;;;;;;5059896;28;20369;-85
2022/02/19 05:25:07;;;;;;;6.65;1.92;;;7.90;91.50;;;;;;5061792;28;20287;-85
2022/02/19 05:27:34;;;;;;;7.05;1.55;;;7.90;91.80;;;;;;5062285;28;20257;-86
2022/02/19 05:30:01;;;;;;;4.22;1.30;;;7.90;91.80;;;;;;5059776;28;20216;-85
2022/02/19 05:32:28;;;;;;;6.70;1.25;;;7.90;91.90;;;;;;5060950;28;20311;-85
2022/02/19 05:34:55;;;;;;;5.85;1.50;;;8.10;91.70;;;;;;5060326;28;20260;-85
2022/02/19 05:37:21;;;;;;;5.10;1.80;;;8.00;91.70;;;;;;5059295;28;20282;-85
2022/02/19 05:39:48;;;;;;;7.97;1.63;;;8.00;91.70;;;;;;5060810;28;20213;-85
2022/02/19 05:42:16;;;;;;;8.00;2.00;;;7.90;92.00;;;;;;5061716;28;20704;-85
2022/02/19 05:44:43;;;;;;;10.35;2.00;;;7.80;92.00;;;;;;5076690;28;20231;-86
2022/02/19 05:47:10;;;;;;;10.43;1.80;;;7.80;92.10;;;;;;5063933;28;20227;-85
2022/02/19 05:49:37;;;;;;;12.93;1.83;;;7.80;92.00;;;;;;5059318;28;20715;-85
2022/02/19 05:52:05;;;;;;;9.98;2.78;;;7.80;92.10;;;;;;5058795;28;20217;-85
2022/02/19 05:54:32;;;;;;;5.55;1.10;;;7.80;92.20;;;;;;5061523;28;20313;-85
2022/02/19 05:56:58;;;;;;;5.40;1.50;;;7.80;92.30;;;;;;5060916;28;20231;-86
2022/02/19 05:59:27;;;;;;;7.22;1.83;;;7.70;92.40;;;;;;5064753;28;20209;-86
2022/02/19 06:01:53;;;;;;;4.20;1.48;;;7.70;92.60;;;;;;5073110;28;20272;-85
2022/02/19 06:04:20;;;;;;;5.65;1.60;;;7.40;92.40;;;;;;5061323;28;20268;-85
2022/02/19 06:06:47;;;;;;;6.50;1.70;;;7.70;92.60;;;;;;5058302;28;20316;-85
2022/02/19 06:09:14;;;;;;;8.30;2.50;;;7.60;92.80;;;;;;5059022;28;20240;-85
2022/02/19 06:11:44;;;;;;;7.15;2.33;;;7.70;92.90;;;;;;5060402;28;20210;-85
2022/02/19 06:14:11;;;;;;;9.18;2.00;;;7.70;92.80;;;;;;5058259;28;20322;-85
2022/02/19 06:16:40;;;;;;;8.70;1.67;;;7.70;92.60;;;;;;5059016;28;20233;-84
2022/02/19 06:19:08;;;;;;;6.43;1.30;;;7.70;92.60;;;;;;5059197;28;20213;-84
2022/02/19 06:21:35;;;;;;;10.38;2.15;;;7.50;92.60;;;;;;5058402;28;20262;-85
2022/02/19 06:24:02;;;;;;;11.75;2.28;;;7.70;92.60;;;;;;5063110;28;20208;-85
2022/02/19 06:26:29;;;;;;;9.38;1.65;;;7.20;92.70;;;;;;5061846;28;20411;-85
2022/02/19 06:28:56;;;;;;;9.80;2.05;;;7.50;92.80;;;;;;5062335;28;20299;-85
2022/02/19 06:31:23;;;;;;;6.90;1.50;;;7.00;92.80;;;;;;5068221;28;20272;-85
2022/02/19 06:33:51;;;;;;;7.18;1.67;;;7.30;93.20;;;;;;5071804;28;20249;-86
2022/02/19 06:36:18;;;;;;;7.57;2.20;;;7.10;93.10;;;;;;5063199;28;20257;-85
2022/02/19 06:38:47;;;;;;;10.65;1.92;;;7.40;93.20;;;;;;5062389;28;20264;-86
2022/02/19 06:41:14;;;;;;;6.70;1.70;;;7.40;93.10;;;;;;5062010;28;20577;-85
2022/02/19 06:43:41;;;;;;;5.50;1.60;;;7.30;93.30;;;;;;5062300;28;20198;-85
2022/02/19 06:46:08;;;;;;;8.13;1.73;;;7.30;93.40;;;;;;5063179;28;20415;-85
2022/02/19 06:48:35;;;;;;;8.07;1.70;;;7.40;93.40;;;;;;5063184;28;20679;-85
2022/02/19 06:51:04;;;;;;;4.07;1.40;;;7.50;93.40;;;;;;5062351;28;20295;-85
2022/02/19 06:53:31;;;;;;;11.20;1.58;;;7.60;93.30;;;;;;5063990;28;20648;-85
2022/02/19 06:55:58;;;;;;;7.18;1.75;;;7.00;93.10;;;;;;5065646;28;20295;-85
2022/02/19 06:58:25;;;;;;;7.75;1.90;;;7.40;93.30;;;;;;5062719;28;20191;-85
2022/02/19 07:00:53;;;;;;;5.53;1.77;;;7.40;93.50;;;;;;5063371;28;20298;-85
2022/02/19 07:03:20;;;;;;;8.00;2.03;;;7.40;93.30;;;;;;5062199;28;20281;-85
2022/02/19 07:05:51;;;;;;;8.32;2.20;;;7.40;93.40;;;;;;5064929;28;20200;-86
2022/02/19 07:08:20;;;;;;;6.55;1.70;;;7.20;93.10;;;;;;5064135;28;20189;-86
2022/02/19 07:10:47;;;;;;;7.28;1.58;;;7.40;93.40;;;;;;5063210;28;20290;-85
2022/02/19 07:13:14;;;;;;;6.25;1.83;;;7.00;93.30;;;;;;5061804;28;20316;-84
2022/02/19 07:15:42;;;;;;;4.10;1.42;;;7.40;93.40;;;;;;5061821;28;20303;-85
2022/02/19 07:18:09;;;;;;;5.40;1.60;;;7.40;93.50;;;;;;5061784;28;20227;-85
2022/02/19 07:20:38;;;;;;;8.07;2.38;;;7.60;93.40;;;;;;5063839;28;20271;-85
2022/02/19 07:23:06;;;;;;;12.63;1.70;;;7.50;93.40;;;;;;5061360;28;20237;-85
2022/02/19 07:25:34;;;;;;;8.40;3.42;;;7.50;93.10;;;;;;5071703;28;20200;-85
2022/02/19 07:28:02;;;;;;;8.48;2.22;;;7.50;93.10;;;;;;5068479;28;20220;-85
2022/02/19 07:30:29;;;;;;;4.93;1.70;;;7.40;93.20;;;;;;5064515;28;20305;-85
2022/02/19 07:32:56;;;;;;;5.75;2.25;;;7.50;93.20;;;;;;5065877;28;20763;-84
2022/02/19 07:35:24;;;;;;;7.57;2.25;;;7.20;92.90;;;;;;5060873;28;20271;-85
2022/02/19 07:37:51;;;;;;;8.73;1.67;;;7.60;93.20;;;;;;5068108;28;20238;-85
2022/02/19 07:40:18;;;;;;;5.07;1.63;;;7.70;93.00;;;;;;5065780;28;20205;-86
2022/02/19 07:42:46;;;;;;;8.90;2.70;;;7.70;93.00;;;;;;5078439;28;20219;-85
2022/02/19 07:45:14;;;;;;;6.72;1.50;;;7.80;93.10;;;;;;5075611;28;20723;-85
2022/02/19 07:47:40;;;;;;;5.70;1.08;;;7.90;92.90;;;;;;5064650;28;20268;-86
2022/02/19 07:58:23;;;;;;;4.68;1.48;;;7.80;92.50;;;;;;5073721;28;20187;-86
2022/02/19 08:00:52;;;;;;;4.38;1.38;;;8.00;92.80;;;;;;5073669;28;20379;-86
2022/02/19 08:03:24;;;;;;;9.13;1.93;;;8.10;92.80;;;;;;5062980;28;20229;-85
2022/02/19 08:05:51;;;;;;;7.38;1.50;;;8.20;92.60;;;;;;5061628;28;20469;-85
2022/02/19 08:08:19;;;;;;;7.18;1.90;;;8.20;92.30;;;;;;5060456;28;20258;-84
2022/02/19 08:10:47;;;;;;;9.65;1.50;;;8.20;92.70;;;;;;5063456;28;20220;-86
2022/02/19 08:13:15;;;;;;;4.25;1.50;;;8.20;92.50;;;;;;5061108;28;20228;-86
2022/02/19 08:15:45;;;;;;;9.68;1.75;;;8.20;92.70;;;;;;5060222;28;20270;-86
2022/02/19 08:18:13;;;;;;;5.32;1.23;;;8.20;92.50;;;;;;5058729;28;20236;-85
2022/02/19 08:20:42;;;;;;;11.40;2.17;;;8.20;92.50;;;;;;5059178;28;20654;-86
2022/02/19 08:23:10;;;;;;;5.32;1.55;;;8.20;92.70;;;;;;5060918;28;20214;-85
2022/02/19 08:25:38;;;;;;;8.88;1.40;;;8.20;92.60;;;;;;5060596;28;20228;-85
2022/02/19 08:28:06;;;;;;;9.90;1.90;;;8.30;92.50;;;;;;5060590;28;20252;-86
2022/02/19 08:30:33;;;;;;;6.85;1.75;;;8.30;92.60;;;;;;5061485;28;20439;-85
2022/02/19 08:33:02;;;;;;;12.10;1.92;;;8.30;92.60;;;;;;5059439;28;20198;-85
2022/02/19 08:35:29;;;;;;;8.25;1.90;;;8.30;92.40;;;;;;5058874;28;20244;-85
2022/02/19 08:37:56;;;;;;;6.55;1.90;;;8.30;92.50;;;;;;5060762;28;20235;-85
2022/02/19 08:40:23;;;;;;;4.60;1.70;;;8.20;92.90;;;;;;5061872;28;20270;-86
2022/02/19 08:42:51;;;;;;;5.63;2.10;;;8.20;92.80;;;;;;5061305;28;20726;-85
2022/02/19 08:45:21;;;;;;;5.73;1.90;;;8.40;92.80;;;;;;5060028;28;20247;-85
2022/02/19 08:47:49;;;;;;;5.57;2.13;;;8.40;92.60;;;;;;5063586;28;20483;-85
2022/02/19 08:50:18;;;;;;;8.38;1.98;;;8.30;92.60;;;;;;5061440;28;20209;-86
2022/02/19 08:52:47;;;;;;;7.28;2.33;;;8.40;92.30;;;;;;5062916;28;20269;-86
2022/02/19 08:55:16;;;;;;;10.40;2.10;;;8.40;92.60;;;;;;5061862;28;20222;-86
2022/02/19 08:57:44;;;;;;;10.65;2.45;;;8.50;92.20;;;;;;5061770;28;20228;-86
2022/02/19 09:00:13;;;;;;;5.80;1.43;;;8.40;91.90;;;;;;5063240;28;20240;-86
2022/02/19 09:02:41;;;;;;;6.20;1.48;;;8.40;91.80;;;;;;5062193;28;20969;-85
2022/02/19 09:05:10;;;;;;;5.10;1.90;;;8.40;91.80;;;;;;5062205;28;20216;-86
2022/02/19 09:07:40;;;;;;;6.40;2.10;;;8.50;92.10;;;;;;5061972;28;20543;-85
2022/02/19 09:10:09;;;;;;;7.03;1.65;;;8.50;92.00;;;;;;5071881;28;20217;-85
2022/02/19 09:12:36;;;;;;;8.05;1.65;;;8.60;92.30;;;;;;5074531;28;20257;-87
2022/02/19 09:15:04;;;;;;;6.95;1.60;;;8.60;92.10;;;;;;5066427;28;20235;-86
2022/02/19 09:17:31;;;;;;;5.97;1.60;;;8.80;91.80;;;;;;5062370;28;20233;-86
2022/02/19 09:19:58;;;;;;;9.88;2.00;;;8.80;91.50;;;;;;5061369;28;20202;-85
2022/02/19 09:22:25;;;;;;;7.20;1.77;;;8.80;91.40;;;;;;5061550;28;20202;-86
2022/02/19 09:24:53;;;;;;;7.07;1.80;;;8.90;91.50;;;;;;5061923;28;20452;-85
2022/02/19 09:27:21;;;;;;;5.70;1.52;;;8.80;91.50;;;;;;5062143;28;20296;-85
2022/02/19 09:29:49;;;;;;;4.90;1.33;;;8.90;91.40;;;;;;5062941;28;20271;-84
2022/02/19 09:32:16;;;;;;;8.60;1.60;;;8.90;90.90;;;;;;5066046;28;20677;-85
2022/02/19 09:34:42;;;;;;;9.27;1.67;;;8.90;91.00;;;;;;5060618;28;20222;-86
2022/02/19 09:37:10;;;;;;;6.03;1.45;;;8.90;90.90;;;;;;5257851;22;20503;-88
2022/02/19 09:39:46;;;;;;;8.93;2.40;;;9.00;90.70;;;;;;5063839;28;20204;-90
2022/02/19 09:42:15;;;;;;;6.20;1.45;;;9.00;90.10;;;;;;5067130;28;20412;-90
2022/02/19 09:44:42;;;;;;;5.00;1.25;;;9.00;89.80;;;;;;5075794;28;20198;-88
2022/02/19 09:47:12;;;;;;;7.38;1.98;;;9.00;90.10;;;;;;5077121;28;20304;-88
2022/02/19 09:49:39;;;;;;;7.33;1.60;;;8.90;90.10;;;;;;5072355;28;20210;-88
2022/02/19 09:52:07;;;;;;;7.13;2.07;;;8.90;90.10;;;;;;5067940;28;20523;-89
2022/02/19 09:54:34;;;;;;;4.73;1.83;;;8.90;90.40;;;;;;5065807;28;20556;-88
2022/02/19 09:57:01;;;;;;;4.15;1.58;;;8.90;90.20;;;;;;5067478;28;20456;-89
2022/02/19 09:59:30;;;;;;;7.95;1.70;;;8.90;90.50;;;;;;5071543;28;20221;-89
2022/02/19 10:02:05;;;;;;;8.55;2.00;;;9.00;90.60;;;;;;5068283;28;20221;-89
2022/02/19 10:04:32;;;;;;;4.65;1.60;;;9.00;90.30;;;;;;5066390;28;20201;-89
2022/02/19 10:07:00;;;;;;;5.80;1.37;;;9.00;90.10;;;;;;5068201;28;20226;-89
2022/02/19 10:09:29;;;;;;;6.10;1.57;;;9.10;90.10;;;;;;5067485;28;20439;-89
2022/02/19 10:12:15;;;;;;;6.87;1.93;;;9.00;90.00;;;;;;5069710;28;20501;-89
2022/02/19 10:14:46;;;;;;;7.00;1.90;;;9.10;90.40;;;;;;5067565;28;20484;-88
2022/02/19 10:17:17;;;;;;;5.22;1.40;;;9.20;89.30;;;;;;5066225;28;20480;-89
2022/02/19 10:19:56;;;;;;;7.47;1.67;;;9.20;89.20;;;;;;5066571;28;20202;-90
2022/02/19 10:22:28;;;;;;;6.07;1.80;;;9.10;88.80;;;;;;5065511;28;20440;-89
2022/02/19 10:24:57;;;;;;;5.35;1.23;;;9.00;89.10;;;;;;5071201;28;20490;-89
2022/02/19 10:27:24;;;;;;;4.97;1.85;;;9.10;88.00;;;;;;5073645;28;20237;-90
2022/02/19 10:29:58;;;;;;;7.93;1.53;;;9.20;88.30;;;;;;5073109;28;20223;-89
2022/02/19 10:32:25;;;;;;;7.25;2.00;;;9.20;88.80;;;;;;5071056;28;20455;-90
2022/02/19 10:35:05;;;;;;;4.38;1.48;;;9.10;89.20;;;;;;5070830;28;20315;-89
2022/02/19 10:37:42;;;;;;;4.82;1.45;;;9.10;89.60;;;;;;5073663;28;20263;-90
2022/02/19 10:40:34;;;;;;;8.37;1.33;;;9.20;88.80;;;;;;5070955;28;20228;-91
2022/02/19 10:43:05;;;;;;;7.70;1.83;;;9.30;86.40;;;;;;5078103;28;20442;-90
2022/02/19 10:45:36;;;;;;;5.63;1.60;;;9.30;86.50;;;;;;5079073;28;20177;-90
2022/02/19 10:48:19;;;;;;;7.30;1.87;;;9.40;86.60;;;;;;5073163;28;20300;-88
2022/02/19 10:50:48;;;;;;;6.33;1.60;;;9.50;85.30;;;;;;5072445;28;20452;-89
2022/02/19 10:53:23;;;;;;;4.37;1.50;;;9.50;86.20;;;;;;5070794;28;20471;-89
2022/02/19 10:55:51;;;;;;;4.90;1.20;;;9.60;86.40;;;;;;5065482;28;20686;-89
2022/02/19 11:05:13;;;;;;;3.47;1.17;;;9.70;83.50;;;;;;4902139;28;20427;-90
2022/02/19 11:08:31;;;;;;;5.47;1.80;;;9.80;83.80;;;;;;5073829;28;20502;-91
2022/02/19 11:11:17;;;;;;;7.03;1.90;;;9.90;83.60;;;;;;5071769;28;20441;-91
2022/02/19 11:46:34;;;;;;;4.83;1.13;;;10.50;74.00;;;;;;5049432;28;20405;-91
2022/02/19 12:01:28;;;;;;;3.27;1.03;;;10.70;73.80;;;;;;5265227;22;20511;-91
2022/02/19 12:04:20;;;;;;;4.90;1.67;;;10.70;73.70;;;;;;5064999;28;20883;-90
2022/02/19 12:07:28;;;;;;;5.27;1.30;;;10.80;73.70;;;;;;5073993;28;20464;-89
2022/02/19 12:10:10;;;;;;;5.73;2.10;;;10.90;74.20;;;;;;5071531;28;20464;-89
2022/02/19 12:17:00;;;;;;;;;;;;;;;;;;;;;
2022/02/19 12:24:04;;;;;;;4.60;1.70;;;10.70;73.30;;;;;;4974252;28;20882;-88
2022/02/19 12:38:14;;;;;;;5.30;1.37;;;10.70;70.10;;;;;;4986505;28;20464;-88
2022/02/19 12:51:49;;;;;;;5.70;1.60;;;10.40;72.80;;;;;;4957541;28;20471;-90
2022/02/19 13:01:06;;;;;;;3.70;1.37;;;10.30;72.90;;;;;;5047483;28;20456;-88
2022/02/19 13:03:57;;;;;;;5.50;1.20;;;10.40;72.40;;;;;;5063429;28;20498;-89
2022/02/19 13:06:46;;;;;;;4.80;1.50;;;10.50;72.30;;;;;;5063447;28;20435;-88
2022/02/19 13:09:20;;;;;;;4.40;1.90;;;10.40;71.90;;;;;;5062821;28;20437;-88
2022/02/19 13:11:48;;;;;;;3.03;1.10;;;10.30;73.30;;;;;;5064004;28;20460;-88
2022/02/19 13:14:16;;;;;;;6.07;1.73;;;10.40;73.90;;;;;;5067427;28;20472;-88
2022/02/19 13:17:00;;;;;;;5.37;1.70;;;10.50;74.60;;;;;;5064152;28;20476;-88
2022/02/19 13:19:28;;;;;;;4.30;1.20;;;10.60;74.70;;;;;;5069479;28;20452;-89
2022/02/19 13:24:54;;;;;;;4.60;1.63;;;10.50;74.40;;;;;;5024241;28;20434;-90
2022/02/19 13:27:28;;;;;;;4.57;1.37;;;10.60;73.30;;;;;;5020630;28;20543;-89
2022/02/19 13:30:03;;;;;;;2.73;1.20;;;10.60;70.30;;;;;;5045380;28;20448;-87
2022/02/19 13:32:34;;;;;;;4.47;1.20;;;10.50;69.80;;;;;;5075640;28;20463;-89
2022/02/19 13:35:25;;;;;;;4.60;1.53;;;10.50;69.70;;;;;;5071162;28;20476;-88
2022/02/19 13:38:07;;;;;;;3.70;1.57;;;10.40;69.20;;;;;;5070595;28;20484;-89
2022/02/19 13:40:38;;;;;;;7.30;1.80;;;10.40;69.10;;;;;;5069471;28;20550;-89
2022/02/19 13:43:34;;;;;;;6.07;1.40;;;10.50;69.10;;;;;;5065403;28;20425;-90
2022/02/19 13:46:14;;;;;;;6.60;1.77;;;10.50;69.90;;;;;;5065527;28;20417;-88
2022/02/19 13:48:45;;;;;;;7.70;2.30;;;10.50;70.10;;;;;;5067113;28;20519;-88
2022/02/19 13:51:15;;;;;;;4.20;1.20;;;10.50;70.20;;;;;;5065396;28;20535;-88
2022/02/19 13:53:42;;;;;;;4.10;1.30;;;10.50;69.10;;;;;;5065513;28;20490;-90
2022/02/19 13:56:12;;;;;;;3.97;0.90;;;10.50;69.00;;;;;;5064483;28;20476;-88
2022/02/19 13:58:51;;;;;;;4.73;1.17;;;10.50;68.60;;;;;;5067439;28;20500;-89
2022/02/19 14:01:19;;;;;;;4.37;1.73;;;10.50;69.20;;;;;;5066852;28;20471;-88
2022/02/19 14:03:50;;;;;;;5.13;1.50;;;10.60;69.30;;;;;;5067173;28;20476;-88
2022/02/19 14:06:36;;;;;;;5.97;1.67;;;10.70;69.40;;;;;;5067354;28;20526;-88
2022/02/19 14:09:19;;;;;;;5.57;1.67;;;10.70;69.90;;;;;;5074103;28;20436;-88
2022/02/19 14:11:51;;;;;;;2.93;1.10;;;10.80;69.50;;;;;;5078225;28;20893;-89
2022/02/19 14:14:26;;;;;;;5.40;1.70;;;10.70;69.90;;;;;;5072682;28;20441;-87
2022/02/19 14:17:01;;;;;;;3.87;1.43;;;10.60;71.20;;;;;;5075755;28;20459;-90
2022/02/19 14:19:30;;;;;;;6.03;1.63;;;10.70;70.60;;;;;;5072184;28;20448;-88
2022/02/19 14:22:08;;;;;;;5.27;1.70;;;10.80;70.10;;;;;;5065018;28;20425;-88
2022/02/19 14:24:35;;;;;;;3.50;1.17;;;10.80;69.60;;;;;;5065829;28;20440;-89
2022/02/19 14:27:19;;;;;;;5.20;1.53;;;10.90;68.30;;;;;;5066371;28;20466;-89
2022/02/19 14:29:49;;;;;;;6.47;1.73;;;10.80;67.50;;;;;;5066370;28;20531;-89
2022/02/19 14:32:17;;;;;;;3.60;1.37;;;10.80;67.40;;;;;;5066483;28;20921;-89
2022/02/19 14:34:54;;;;;;;2.30;0.63;;;10.80;67.20;;;;;;5065938;28;20545;-88
2022/02/19 14:37:29;;;;;;;4.77;1.50;;;10.80;65.10;;;;;;5066937;28;20506;-88
2022/02/19 14:39:56;;;;;;;4.63;1.83;;;10.70;65.40;;;;;;5066928;28;20448;-89
2022/02/19 14:42:23;;;;;;;3.20;1.27;;;10.70;66.40;;;;;;5073280;28;20456;-90
2022/02/19 14:44:52;;;;;;;3.60;0.97;;;10.80;66.40;;;;;;5074110;28;20460;-90
2022/02/19 14:47:22;;;;;;;4.33;1.50;;;10.80;66.20;;;;;;5069504;28;20536;-88
2022/02/19 14:49:55;;;;;;;3.80;1.13;;;10.80;67.00;;;;;;5068454;28;20445;-88
2022/02/19 14:52:28;;;;;;;3.47;1.20;;;10.70;66.70;;;;;;5067355;28;20422;-89
2022/02/19 14:54:59;;;;;;;5.30;1.30;;;10.80;66.20;;;;;;5065761;28;20555;-89
2022/02/19 14:57:28;;;;;;;4.40;1.60;;;10.80;66.30;;;;;;5097507;22;20545;-89
2022/02/19 15:00:17;;;;;;;7.50;1.63;;;10.80;65.50;;;;;;5071321;28;20832;-89
2022/02/19 15:02:47;;;;;;;5.33;1.40;;;10.90;64.60;;;;;;5067392;28;20428;-88
2022/02/19 15:05:16;;;;;;;4.83;1.37;;;10.90;63.90;;;;;;5066576;28;20991;-89
2022/02/19 15:07:46;;;;;;;11.43;1.50;;;10.90;64.00;;;;;;5064667;28;20482;-89
2022/02/19 15:10:16;;;;;;;6.03;1.50;;;10.90;64.00;;;;;;5064524;28;20427;-89
2022/02/19 15:12:59;;;;;;;3.10;1.20;;;10.90;63.80;;;;;;5063071;28;20503;-89
2022/02/19 15:15:38;;;;;;;5.70;1.83;;;10.90;63.90;;;;;;5062298;28;20538;-88
2022/02/19 15:18:15;;;;;;;4.63;1.70;;;10.70;65.10;;;;;;5062895;28;20495;-88
2022/02/19 15:20:57;;;;;;;3.43;1.57;;;10.70;65.50;;;;;;5062982;28;20556;-88
2022/02/19 15:23:24;;;;;;;6.90;2.53;;;10.60;65.80;;;;;;5062364;28;20569;-89
2022/02/19 15:26:04;;;;;;;4.00;1.40;;;10.70;66.30;;;;;;5063155;28;20448;-89
2022/02/19 15:28:51;;;;;;;5.10;1.50;;;10.70;66.10;;;;;;5062997;28;20940;-89
2022/02/19 15:31:23;;;;;;;5.27;1.87;;;10.70;66.30;;;;;;5063046;28;20460;-90
2022/02/19 15:36:52;;;;;;;20.70;4.53;;;10.60;66.80;;;;;;5068941;28;20508;-89
2022/02/19 15:39:19;;;;;;;5.40;1.77;;;10.60;66.80;;;;;;5078623;22;20480;-86
2022/02/19 15:41:46;;;;;;;3.80;1.33;;;10.50;67.10;;;;;;5075657;28;20471;-86
2022/02/19 15:44:13;;;;;;;4.40;1.40;;;10.50;67.20;;;;;;5067814;28;20471;-86
2022/02/19 15:46:45;;;;;;;4.10;1.13;;;10.50;67.30;;;;;;5066369;28;20448;-86
2022/02/19 15:49:12;;;;;;;4.33;1.90;;;10.50;67.40;;;;;;5066549;28;20543;-88
2022/02/19 15:51:39;;;;;;;4.33;1.40;;;10.50;66.80;;;;;;5070668;28;20431;-86
2022/02/19 15:54:08;;;;;;;4.03;1.70;;;10.50;66.90;;;;;;5072548;28;20463;-87
2022/02/19 15:56:35;;;;;;;4.20;1.33;;;10.50;67.40;;;;;;5069719;28;20559;-88
2022/02/19 15:59:07;;;;;;;4.40;1.47;;;10.40;68.00;;;;;;5067206;28;20460;-86
2022/02/19 16:01:34;;;;;;;3.60;1.50;;;10.50;68.00;;;;;;5072757;28;20437;-86
2022/02/19 16:04:02;;;;;;;5.23;1.53;;;10.30;68.60;;;;;;5068776;28;20448;-86
2022/02/19 16:06:29;;;;;;;7.37;3.00;;;10.20;68.60;;;;;;5067596;28;20448;-87
2022/02/19 16:08:57;;;;;;;5.27;1.50;;;10.40;68.60;;;;;;5070087;28;20469;-86
2022/02/19 16:11:26;;;;;;;4.37;1.30;;;10.40;68.80;;;;;;5070192;28;20532;-86
2022/02/19 16:13:53;;;;;;;5.93;2.10;;;10.40;69.00;;;;;;5065977;28;20499;-84
2022/02/19 16:16:20;;;;;;;4.73;1.73;;;10.20;68.90;;;;;;5065983;28;20544;-85
2022/02/19 16:18:47;;;;;;;11.27;2.67;;;10.10;69.60;;;;;;5064207;28;20499;-86
2022/02/19 16:21:15;;;;;;;5.13;1.50;;;10.10;69.20;;;;;;5070130;28;20492;-86
2022/02/19 16:23:42;;;;;;;4.87;1.77;;;10.00;68.70;;;;;;5072661;28;20480;-86
2022/02/19 16:26:09;;;;;;;5.37;2.20;;;9.90;70.80;;;;;;5066744;28;20457;-84
2022/02/19 16:28:38;;;;;;;9.37;2.70;;;10.00;70.00;;;;;;5064525;28;20472;-85
2022/02/19 16:31:05;;;;;;;7.83;3.00;;;9.90;71.00;;;;;;5063212;28;20461;-86
2022/02/19 16:33:33;;;;;;;5.27;1.80;;;9.90;72.20;;;;;;5062846;28;20976;-83
2022/02/19 16:36:05;;;;;;;4.77;2.03;;;10.00;70.40;;;;;;5063854;28;20480;-85
2022/02/19 16:38:33;;;;;;;4.57;1.50;;;9.90;71.60;;;;;;5065322;28;20548;-87
2022/02/19 16:41:00;;;;;;;4.40;2.00;;;10.00;70.20;;;;;;5064455;28;20520;-83
2022/02/19 16:43:27;;;;;;;5.67;2.30;;;10.00;70.30;;;;;;5068855;28;20808;-84
2022/02/19 16:46:00;;;;;;;4.37;1.70;;;9.90;72.30;;;;;;5065111;28;20494;-83
2022/02/19 16:48:27;;;;;;;6.63;2.57;;;9.80;72.70;;;;;;5064567;28;20468;-84
2022/02/19 16:50:54;;;;;;;5.03;2.17;;;9.80;72.80;;;;;;5064725;28;20459;-83
2022/02/19 16:53:21;;;;;;;3.93;1.97;;;9.70;73.60;;;;;;5064775;28;20486;-83
2022/02/19 16:55:48;;;;;;;6.17;1.77;;;9.80;73.20;;;;;;5064528;28;20488;-85
2022/02/19 16:58:16;;;;;;;7.03;2.30;;;9.60;73.10;;;;;;5064136;28;20473;-84
2022/02/19 17:00:42;;;;;;;6.53;1.93;;;9.80;73.40;;;;;;5069796;28;20520;-84
2022/02/19 17:03:12;;;;;;;5.67;1.53;;;9.80;73.10;;;;;;5074221;28;20520;-84
2022/02/19 17:05:39;;;;;;;11.90;2.40;;;9.70;72.80;;;;;;5073443;28;20447;-84
2022/02/19 17:08:06;;;;;;;5.73;2.40;;;9.60;73.40;;;;;;5070989;28;20465;-84
2022/02/19 17:10:33;;;;;;;8.70;3.10;;;9.50;73.70;;;;;;5068263;28;20963;-84
2022/02/19 17:13:02;;;;;;;5.83;2.23;;;9.50;74.60;;;;;;5074784;28;20441;-85
2022/02/19 17:15:31;;;;;;;7.37;1.73;;;9.50;74.80;;;;;;5075632;28;20484;-83
2022/02/19 17:18:00;;;;;;;4.80;1.80;;;9.30;74.70;;;;;;5068329;28;20464;-83
2022/02/19 17:20:29;;;;;;;6.90;2.17;;;9.20;75.10;;;;;;5065285;28;20444;-84
2022/02/19 17:22:55;;;;;;;10.18;5.15;;;9.20;75.40;;;;;;5068681;28;20277;-84
2022/02/19 17:25:22;;;;;;;4.87;2.23;;;9.10;75.30;;;;;;5071315;28;20226;-84
2022/02/19 17:27:50;;;;;;;5.50;2.90;;;9.10;75.40;;;;;;5069437;28;20480;-84
2022/02/19 17:30:16;;;;;;;6.07;2.73;;;9.10;75.80;;;;;;5064958;28;20777;-84
2022/02/19 17:32:43;;;;;;;12.80;2.30;;;9.10;79.00;;;;;;5063018;28;20480;-84
2022/02/19 17:35:11;;;;;;;5.27;2.17;;;9.20;81.40;;;;;;5063367;28;20539;-84
2022/02/19 17:37:39;;;;;;;5.90;2.30;;;9.20;81.60;;;;;;5064030;28;20481;-84
2022/02/19 17:40:10;;;;;;;6.20;2.53;;;9.20;81.30;;;;;;5063968;28;20910;-85
2022/02/19 17:42:37;;;;;;;5.30;2.70;;;9.20;78.70;;;;;;5065082;28;20441;-84